Have a Safe July 4th! 

Flight Track Log - Related Links

Times and Time Zones

All times are in EDT time to prevent confusion due to time zone crossing. See the SWA607 flight status page for this flight to view local times or setup timezone preferences in your user account.

Time Position Orientation Groundspeed Altitude Reporting Facility
EDT Latitude Longitude Course Direction KTS MPH feet Rate Location/Type
Sat 12:54:28 PM 38.5833 -121.5000 134° Southeast 261 300 4,500  Level Northern Cal TRACON
Sat 12:55:28 PM 38.5667 -121.4167 104° East 292 336 7,800 3,200 Climbing Northern Cal TRACON
Sat 12:56:13 PM 38.5511 -121.3383 104° East 286 329 10,100 2,434 Climbing Oakland Center
Sat 12:57:14 PM 38.5364 -121.2272 100° East 316 364 12,100 2,213 Climbing Oakland Center
Sat 12:58:15 PM 38.5197 -121.1094 100° East 336 387 14,600 2,361 Climbing Oakland Center
Sat 12:59:16 PM 38.5028 -120.9867 100° East 350 403 16,900 1,951 Climbing Oakland Center
Sat 01:00:18 PM 38.4842 -120.8553 100° East 371 427 18,600 2,000 Climbing Oakland Center
Sat 01:01:19 PM 38.4653 -120.7214 100° East 383 441 21,000 2,115 Climbing Oakland Center
Sat 01:02:20 PM 38.4458 -120.5889 101° East 381 438 22,900 1,854 Climbing Oakland Center
Sat 01:03:22 PM 38.4261 -120.4508 100° East 393 452 24,800 1,854 Climbing Oakland Center
Sat 01:04:23 PM 38.4056 -120.3114 101° East 397 457 26,700 1,967 Climbing Oakland Center
Sat 01:05:24 PM 38.3800 -120.1422 101° East 404 465 28,800 1,707 Climbing Oakland Center
Sat 01:06:26 PM 38.3606 -119.9989 100° East 408 470 30,200 1,366 Climbing Oakland Center
Sat 01:07:27 PM 38.3389 -119.8522 101° East 417 480 31,600 1,525 Climbing Oakland Center
Sat 01:08:28 PM 38.3164 -119.7069 101° East 419 482 33,300 1,463 Climbing Oakland Center
Sat 01:09:30 PM 38.2942 -119.5619 101° East 417 480 34,600 829 Climbing Oakland Center
Sat 01:10:31 PM 38.2708 -119.4114 101° East 417 480 35,000 197 Climbing Oakland Center
Sat 01:11:32 PM 38.2481 -119.2664 101° East 419 482 35,000  Level Oakland Center
Sat 01:12:34 PM 38.2250 -119.1192 101° East 424 488 35,000  Level Oakland Center
Sat 01:13:35 PM 38.2019 -118.9733 101° East 423 487 35,000  Level Oakland Center
Sat 01:14:36 PM 38.1786 -118.8269 101° East 426 490 35,000  Level Oakland Center
Sat 01:15:37 PM 38.1547 -118.6811 102° East 424 488 35,000  Level Oakland Center
Sat 01:16:39 PM 38.1281 -118.5136 101° East 422 486 35,000  Level Oakland Center
Sat 01:17:40 PM 38.1033 -118.3669 102° East 424 488 35,000  Level Oakland Center
Sat 01:18:41 PM 38.0797 -118.2194 101° East 428 493 35,000 98 Level Oakland Center
Sat 01:19:42 PM 38.0550 -118.0731 102° East 425 489 35,200 976 Climbing Oakland Center
Sat 01:20:44 PM 38.0303 -117.9317 102° East 414 476 37,000 878 Climbing Oakland Center
Sat 01:21:45 PM 38.0064 -117.7953 102° East 404 465 37,000  Level Oakland Center
Sat 01:22:46 PM 37.9175 -117.6972 139° Southeast 435 501 37,000  Level Oakland Center
Sat 01:23:47 PM 37.7992 -117.5947 146° Southeast 436 502 37,000  Level Oakland Center
Sat 01:24:49 PM 37.6978 -117.5072 146° Southeast 444 511 37,000  Level Oakland Center
Sat 01:25:50 PM 37.5939 -117.4189 146° Southeast 452 520 37,000  Level Oakland Center
Sat 01:26:51 PM 37.4906 -117.3311 146° Southeast 451 519 37,000  Level Oakland Center
Sat 01:27:53 PM 37.3864 -117.2436 146° Southeast 451 519 37,000  Level Oakland Center
Sat 01:28:54 PM 37.2831 -117.1536 145° Southeast 452 520 37,000  Level Oakland Center
Sat 01:29:55 PM 37.1783 -117.0642 146° Southeast 456 525 37,000  Level Oakland Center
Sat 01:30:57 PM 37.0744 -116.9781 147° Southeast 449 517 37,000  Level Oakland Center
Sat 01:31:58 PM 36.9742 -116.8925 146° Southeast 438 504 37,000  Level Oakland Center
Sat 01:32:59 PM 36.8511 -116.7889 146° Southeast 443 510 37,000  Level Oakland Center
Sat 01:34:01 PM 36.7717 -116.6789 132° Southeast 443 510 37,000  Level Oakland Center
Sat 01:35:02 PM 36.7164 -116.5475 118° Southeast 433 498 37,000  Level Oakland Center
Sat 01:35:27 PM 36.7061 -116.5169 113° Southeast 434 499 37,000  Level Los Angeles Center
Sat 01:36:29 PM 36.6397 -116.3589 118° Southeast 431 496 37,000  Level Los Angeles Center
Sat 01:37:31 PM 36.5842 -116.2258 117° Southeast 433 498 37,000  Level Los Angeles Center
Sat 01:38:33 PM 36.5283 -116.0953 118° Southeast 429 494 37,000  Level Los Angeles Center
Sat 01:39:35 PM 36.4606 -115.9353 118° Southeast 434 499 37,000  Level Los Angeles Center
Sat 01:40:37 PM 36.4067 -115.8108 118° Southeast 432 497 37,000  Level Los Angeles Center
Sat 01:41:39 PM 36.3503 -115.6808 118° Southeast 431 496 37,000  Level Los Angeles Center
Sat 01:42:41 PM 36.2881 -115.5325 117° Southeast 434 499 37,000  Level Los Angeles Center
Sat 01:43:43 PM 36.2314 -115.4003 118° Southeast 436 502 37,000  Level Los Angeles Center
Sat 01:44:46 PM 36.1750 -115.2700 118° Southeast 432 497 37,000  Level Los Angeles Center
Sat 01:45:48 PM 36.1167 -115.1375 119° Southeast 438 504 37,000  Level Los Angeles Center
Sat 01:46:50 PM 36.0592 -115.0072 119° Southeast 434 499 37,000  Level Los Angeles Center
Sat 01:47:52 PM 35.9889 -114.8511 119° Southeast 434 499 37,000  Level Los Angeles Center
Sat 01:48:54 PM 35.9247 -114.7261 122° Southeast 433 498 37,000  Level Los Angeles Center
Sat 01:49:56 PM 35.8583 -114.6008 123° Southeast 435 501 37,000  Level Los Angeles Center
Sat 01:50:58 PM 35.7917 -114.4758 123° Southeast 436 502 37,000  Level Los Angeles Center
Sat 01:52:00 PM 35.7258 -114.3503 123° Southeast 435 501 37,000  Level Los Angeles Center
Sat 01:53:02 PM 35.6550 -114.2189 124° Southeast 438 504 37,000  Level Los Angeles Center
Sat 01:54:04 PM 35.5881 -114.0950 124° Southeast 437 503 37,000  Level Los Angeles Center
Sat 01:55:06 PM 35.5222 -113.9703 123° Southeast 439 505 37,000  Level Los Angeles Center
Sat 01:56:09 PM 35.4414 -113.8208 124° Southeast 441 507 37,000  Level Los Angeles Center
Sat 01:57:23 PM 35.3744 -113.6964 123° Southeast 441 507 37,000 -1,191 Level Los Angeles Center
Sat 01:58:25 PM 35.2933 -113.5483 124° Southeast 439 505 34,300 -2,468 Descending Los Angeles Center
Sat 01:59:27 PM 35.2397 -113.4508 124° Southeast 439 505 31,900 -2,565 Descending Los Angeles Center
Sat 02:00:29 PM 35.1475 -113.2819 124° Southeast 434 499 29,000 -1,403 Descending Los Angeles Center
Sat 02:01:31 PM 35.0836 -113.1672 124° Southeast 419 482 29,000  Level Los Angeles Center
Sat 02:01:48 PM 35.0697 -113.1444 127° Southeast 421 484 29,000  Level Albuquerque Center
Sat 02:02:50 PM 34.9594 -113.0261 139° Southeast 450 518 29,000  Level Albuquerque Center
Sat 02:03:52 PM 34.8644 -112.9281 140° Southeast 455 524 29,000  Level Albuquerque Center
Sat 02:04:54 PM 34.7675 -112.8294 140° Southeast 455 524 29,000 -49 Level Albuquerque Center
Sat 02:05:55 PM 34.6703 -112.7306 140° Southeast 457 526 28,900 -1,122 Descending Albuquerque Center
Sat 02:06:57 PM 34.5764 -112.6325 139° Southeast 453 521 26,700 -2,177 Descending Albuquerque Center
Sat 02:07:59 PM 34.4867 -112.5408 140° Southeast 431 496 24,400 -2,468 Descending Albuquerque Center
Sat 02:09:01 PM 34.3811 -112.4358 141° Southeast 409 471 21,600 -2,390 Descending Albuquerque Center
Sat 02:10:02 PM 34.2997 -112.3522 140° Southeast 387 445 19,500 -2,049 Descending Albuquerque Center
Sat 02:11:04 PM 34.2206 -112.2711 140° Southeast 375 432 17,400 -2,129 Descending Albuquerque Center
Sat 02:12:06 PM 34.1425 -112.1936 141° Southeast 367 422 15,100 -1,659 Descending Albuquerque Center
Sat 02:13:07 PM 34.0647 -112.1386 150° Southeast 332 382 14,000 -1,366 Descending Albuquerque Center
Sat 02:14:09 PM 33.9758 -112.1478 185° South 322 371 12,300 -1,597 Descending Albuquerque Center
Sat 02:15:11 PM 33.8903 -112.1589 186° South 313 360 10,700 -1,756 Descending Albuquerque Center
Sat 02:16:12 PM 33.7908 -112.1808 190° South 305 351 8,700 -1,415 Descending Albuquerque Center
Sat 02:17:14 PM 33.7125 -112.1975 190° South 291 335 7,800 -871 Descending Albuquerque Center
Sat 02:18:16 PM 33.6436 -112.2111 189° South 257 296 6,900 -927 Descending Albuquerque Center
Sat 02:19:17 PM 33.5758 -112.2261 190° South 249 287 5,900 -829 Descending Albuquerque Center
Sat 02:20:19 PM 33.5186 -112.2383 190° South 208 239 5,200 -927 Descending Albuquerque Center
Sat 02:21:20 PM 33.4772 -112.2086 149° Southeast 204 235 4,000 -1,073 Descending Albuquerque Center
Sat 02:22:22 PM 33.4425 -112.1433 123° Southeast 197 227 3,000 -968 Descending Albuquerque Center
Sat 02:23:24 PM 33.4406 -112.0831 92° East 182 209 2,000 -829 Descending Albuquerque Center
Sat 02:24:25 PM 33.4406 -112.0361 90° East 148 170 1,300 -689 Descending Albuquerque Center
Sat 02:26:00 PM 33.4343 -112.0116 107° East  Level Estimated

Login

Don't have an account? Register now (free) for customized features, flight alerts, and more!